createdAt,value
2023-05-14T00:01:17.551Z,8.23
2023-05-14T00:03:45.605Z,8.50
2023-05-14T00:06:13.828Z,9.32
2023-05-14T00:08:41.406Z,8.70
2023-05-14T00:11:09.924Z,9.20
2023-05-14T00:13:37.659Z,8.95
2023-05-14T00:16:05.688Z,8.35
2023-05-14T00:18:33.504Z,7.43
2023-05-14T00:21:00.802Z,7.93
2023-05-14T00:23:28.560Z,7.22
2023-05-14T00:25:56.705Z,7.47
2023-05-14T00:28:24.399Z,7.65
2023-05-14T00:30:52.256Z,7.90
2023-05-14T00:33:19.767Z,7.65
2023-05-14T00:35:47.591Z,8.73
2023-05-14T00:38:23.432Z,7.90
2023-05-14T00:40:51.858Z,7.30
2023-05-14T00:43:23.105Z,8.27
2023-05-14T00:45:54.764Z,7.97
2023-05-14T00:48:23.582Z,7.13
2023-05-14T00:50:51.799Z,7.53
2023-05-14T00:53:21.000Z,7.05
2023-05-14T00:55:50.384Z,7.35
2023-05-14T00:58:19.457Z,7.38
2023-05-14T01:00:46.844Z,6.70
2023-05-14T01:03:14.591Z,7.72
2023-05-14T01:06:01.588Z,7.38
2023-05-14T01:09:25.673Z,6.82
2023-05-14T01:12:04.040Z,6.25
2023-05-14T01:14:46.309Z,6.13
2023-05-14T01:17:20.090Z,6.05
2023-05-14T01:19:49.359Z,6.22
2023-05-14T01:22:17.085Z,6.10
2023-05-14T01:24:44.765Z,6.20
2023-05-14T01:27:56.182Z,6.10
2023-05-14T01:30:41.487Z,5.80
2023-05-14T01:33:18.098Z,5.75
2023-05-14T01:35:46.580Z,6.30
2023-05-14T01:38:24.576Z,6.32
2023-05-14T01:40:54.436Z,6.75
2023-05-14T01:43:23.026Z,6.53
2023-05-14T01:45:50.505Z,6.60
2023-05-14T01:48:19.041Z,6.85
2023-05-14T01:50:46.230Z,6.80
2023-05-14T01:53:14.817Z,7.35
2023-05-14T01:55:42.143Z,7.65
2023-05-14T01:58:10.544Z,7.68
2023-05-14T02:00:38.361Z,7.35
2023-05-14T02:03:06.543Z,6.40
2023-05-14T02:05:34.483Z,6.88
2023-05-14T02:08:01.670Z,7.05
2023-05-14T02:10:29.179Z,6.68
2023-05-14T02:12:56.708Z,6.20
2023-05-14T02:15:24.347Z,7.03
2023-05-14T02:17:51.690Z,7.32
2023-05-14T02:20:19.127Z,7.85
2023-05-14T02:22:47.369Z,7.60
2023-05-14T02:25:15.592Z,7.45
2023-05-14T02:27:43.069Z,7.72
2023-05-14T02:30:11.936Z,7.35
2023-05-14T02:32:40.242Z,7.50
2023-05-14T02:35:08.609Z,7.53
2023-05-14T02:37:35.985Z,7.53
2023-05-14T02:40:04.537Z,7.20
2023-05-14T02:42:32.978Z,8.02
2023-05-14T02:45:00.539Z,7.47
2023-05-14T02:47:27.878Z,7.30
2023-05-14T02:49:55.428Z,7.45
2023-05-14T02:52:22.708Z,7.65
2023-05-14T02:54:50.331Z,7.85
2023-05-14T02:57:17.644Z,8.23
2023-05-14T02:59:44.835Z,9.43
2023-05-14T03:02:14.572Z,7.38
2023-05-14T03:04:42.632Z,6.90
2023-05-14T03:07:10.624Z,9.35
2023-05-14T03:09:38.427Z,10.32
2023-05-14T03:12:08.389Z,10.40
2023-05-14T03:14:35.933Z,9.90
2023-05-14T03:17:04.130Z,9.30
2023-05-14T03:19:31.513Z,9.43
2023-05-14T03:21:59.268Z,10.50
2023-05-14T03:24:27.149Z,9.63
2023-05-14T03:26:54.974Z,9.68
2023-05-14T03:29:23.050Z,9.52
2023-05-14T03:31:50.664Z,10.63
2023-05-14T03:34:18.107Z,9.93
2023-05-14T03:36:45.490Z,9.52
2023-05-14T03:39:15.613Z,9.55
2023-05-14T03:41:43.050Z,9.40
2023-05-14T03:44:10.557Z,9.82
2023-05-14T03:46:38.130Z,8.98
2023-05-14T03:49:08.423Z,9.07
2023-05-14T03:51:35.928Z,9.50
2023-05-14T03:54:05.665Z,10.20
2023-05-14T03:56:34.033Z,8.85
2023-05-14T03:59:01.440Z,8.70
2023-05-14T04:01:28.818Z,7.68
2023-05-14T04:03:58.928Z,7.85
2023-05-14T04:06:27.536Z,8.32
2023-05-14T04:08:55.542Z,8.50
2023-05-14T04:11:23.138Z,8.95
2023-05-14T04:13:50.504Z,8.40
2023-05-14T04:16:17.818Z,8.13
2023-05-14T04:18:45.198Z,8.38
2023-05-14T04:21:12.540Z,8.50
2023-05-14T04:23:40.409Z,9.00
2023-05-14T04:26:07.976Z,8.00
2023-05-14T04:28:35.635Z,8.35
2023-05-14T04:31:03.838Z,8.43
2023-05-14T04:33:31.296Z,8.30
2023-05-14T04:35:58.644Z,8.23
2023-05-14T04:38:29.454Z,8.27
2023-05-14T04:40:56.993Z,7.80
2023-05-14T04:43:24.485Z,8.15
2023-05-14T04:45:52.493Z,7.60
2023-05-14T04:48:20.015Z,7.25
2023-05-14T04:50:47.268Z,7.32
2023-05-14T04:53:15.505Z,7.65
2023-05-14T04:55:42.716Z,7.30
2023-05-14T04:58:09.934Z,7.20
2023-05-14T05:00:37.489Z,7.40
2023-05-14T05:03:04.886Z,7.40
2023-05-14T05:05:32.099Z,7.55
2023-05-14T05:07:59.261Z,6.82
2023-05-14T05:10:26.926Z,6.93
2023-05-14T05:12:54.132Z,7.30
2023-05-14T05:15:21.650Z,7.18
2023-05-14T05:17:49.665Z,6.55
2023-05-14T05:20:17.221Z,7.72
2023-05-14T05:22:44.627Z,6.80
2023-05-14T05:25:12.916Z,7.05
2023-05-14T05:27:40.908Z,7.63
2023-05-14T05:30:09.446Z,7.50
2023-05-14T05:32:37.344Z,6.95
2023-05-14T05:35:05.193Z,7.18
2023-05-14T05:37:32.568Z,7.15
2023-05-14T05:39:59.960Z,7.25
2023-05-14T05:42:27.467Z,7.05
2023-05-14T05:44:54.968Z,7.32
2023-05-14T05:47:22.502Z,6.97
2023-05-14T05:49:49.999Z,7.20
2023-05-14T05:52:17.356Z,7.53
2023-05-14T05:54:45.729Z,7.22
2023-05-14T05:57:14.239Z,7.13
2023-05-14T05:59:41.500Z,7.13
2023-05-14T06:02:14.430Z,7.28
2023-05-14T06:04:42.269Z,7.55
2023-05-14T06:07:09.652Z,6.80
2023-05-14T06:09:36.941Z,6.82
2023-05-14T06:12:04.947Z,7.03
2023-05-14T06:14:32.158Z,7.35
2023-05-14T06:16:59.568Z,6.90
2023-05-14T06:19:26.891Z,6.60
2023-05-14T06:21:54.050Z,7.82
2023-05-14T06:24:21.217Z,7.90
2023-05-14T06:26:49.309Z,7.70
2023-05-14T06:29:17.349Z,7.68
2023-05-14T06:31:45.623Z,8.13
2023-05-14T06:34:12.989Z,7.60
2023-05-14T06:36:40.257Z,6.88
2023-05-14T06:39:08.428Z,6.97
2023-05-14T06:41:35.912Z,6.93
2023-05-14T06:44:03.684Z,7.00
2023-05-14T06:46:30.924Z,6.93
2023-05-14T06:48:59.592Z,6.63
2023-05-14T06:51:30.663Z,6.65
2023-05-14T06:53:58.059Z,6.57
2023-05-14T06:56:25.406Z,6.65
2023-05-14T06:58:52.621Z,6.28
2023-05-14T07:01:19.911Z,6.25
2023-05-14T07:03:48.363Z,6.32
2023-05-14T07:06:16.104Z,6.43
2023-05-14T07:08:47.374Z,6.43
2023-05-14T07:11:16.006Z,6.70
2023-05-14T07:13:43.555Z,6.68
2023-05-14T07:16:10.714Z,6.57
2023-05-14T07:18:38.243Z,6.30
2023-05-14T07:21:06.555Z,6.38
2023-05-14T07:23:38.421Z,6.10
2023-05-14T07:26:08.154Z,6.47
2023-05-14T07:28:35.823Z,6.45
2023-05-14T07:31:08.823Z,6.38
2023-05-14T07:33:36.969Z,6.28
2023-05-14T07:36:05.352Z,6.18
2023-05-14T07:38:33.129Z,6.80
2023-05-14T07:41:00.610Z,6.03
2023-05-14T07:43:27.900Z,6.00
2023-05-14T07:45:55.977Z,6.00
2023-05-14T07:48:23.950Z,6.10
2023-05-14T07:50:51.938Z,6.15
2023-05-14T07:53:19.278Z,6.07
2023-05-14T07:55:48.381Z,5.88
2023-05-14T07:58:16.375Z,5.63
2023-05-14T08:00:43.666Z,6.40
2023-05-14T08:03:11.392Z,6.38
2023-05-14T08:05:38.681Z,6.05
2023-05-14T08:08:06.729Z,6.43
2023-05-14T08:10:34.639Z,6.47
2023-05-14T08:13:02.023Z,5.80
2023-05-14T08:15:29.599Z,5.43
2023-05-14T08:17:58.857Z,5.53
2023-05-14T08:20:27.084Z,5.55
2023-05-14T08:22:55.716Z,5.80
2023-05-14T08:25:28.516Z,6.03
2023-05-14T08:27:56.082Z,5.43
2023-05-14T08:30:24.072Z,5.80
2023-05-14T08:32:52.845Z,5.38
2023-05-14T08:35:20.542Z,5.93
2023-05-14T08:37:49.690Z,5.25
2023-05-14T08:40:18.853Z,5.72
2023-05-14T08:42:48.495Z,5.28
2023-05-14T08:45:25.753Z,6.25
2023-05-14T08:47:53.865Z,6.57
2023-05-14T08:50:23.337Z,5.43
2023-05-14T08:52:52.101Z,6.45
2023-05-14T08:55:20.328Z,5.78
2023-05-14T08:57:47.551Z,6.78
2023-05-14T09:00:20.595Z,7.45
2023-05-14T09:02:49.365Z,6.40
2023-05-14T09:05:19.335Z,7.35
2023-05-14T09:07:47.214Z,7.88
2023-05-14T09:10:18.734Z,7.28
2023-05-14T09:14:27.405Z,7.55
2023-05-14T09:16:55.563Z,6.95
2023-05-14T09:19:23.276Z,7.15
2023-05-14T09:21:51.582Z,7.00
2023-05-14T09:24:30.978Z,6.90
2023-05-14T09:26:58.969Z,6.35
2023-05-14T09:29:31.214Z,6.30
2023-05-14T09:32:04.978Z,6.70
2023-05-14T09:34:37.323Z,6.07
2023-05-14T09:37:09.532Z,5.80
2023-05-14T09:39:38.658Z,5.60
2023-05-14T09:42:06.458Z,6.28
2023-05-14T09:44:33.797Z,5.75
2023-05-14T09:47:01.142Z,5.15
2023-05-14T09:49:28.424Z,5.18
2023-05-14T09:51:57.933Z,5.75
2023-05-14T09:54:27.657Z,5.38
2023-05-14T09:56:55.908Z,5.93
2023-05-14T09:59:23.393Z,6.28
2023-05-14T10:01:52.695Z,5.32
2023-05-14T10:04:22.406Z,6.80
2023-05-14T10:06:53.408Z,6.55
2023-05-14T10:09:26.472Z,6.15
2023-05-14T10:12:01.499Z,6.03
2023-05-14T10:14:46.994Z,6.10
2023-05-14T10:17:18.709Z,6.30
2023-05-14T10:19:59.066Z,5.60
2023-05-14T10:22:34.998Z,4.80
2023-05-14T10:25:05.065Z,5.20
2023-05-14T10:27:33.774Z,4.95
2023-05-14T10:30:06.264Z,5.00
2023-05-14T10:32:37.829Z,5.63
2023-05-14T10:35:22.975Z,4.88
2023-05-14T10:37:52.183Z,4.50
2023-05-14T10:40:24.545Z,4.70
2023-05-14T10:42:53.457Z,4.00
2023-05-14T10:45:23.240Z,3.70
2023-05-14T10:47:50.761Z,3.80
2023-05-14T10:50:18.735Z,4.00
2023-05-14T10:52:46.924Z,4.20
2023-05-14T10:55:17.288Z,4.03
2023-05-14T10:57:46.884Z,4.55
2023-05-14T11:00:20.941Z,3.60
2023-05-14T11:02:48.689Z,3.75
2023-05-14T11:05:17.921Z,3.92
2023-05-14T11:07:50.321Z,4.03
2023-05-14T11:10:26.077Z,4.38
2023-05-14T11:12:57.324Z,3.47
2023-05-14T11:15:27.952Z,3.60
2023-05-14T11:17:55.634Z,3.22
2023-05-14T11:20:23.287Z,3.35
2023-05-14T11:22:55.426Z,4.07
2023-05-14T11:25:29.053Z,2.90
2023-05-14T11:27:58.943Z,3.08
2023-05-14T11:30:26.778Z,3.25
2023-05-14T11:32:56.123Z,3.63
2023-05-14T11:35:24.085Z,3.00
2023-05-14T11:37:52.893Z,3.63
2023-05-14T11:40:20.995Z,3.45
2023-05-14T11:42:53.429Z,3.50
2023-05-14T11:45:29.927Z,3.42
2023-05-14T11:47:57.699Z,2.80
2023-05-14T11:50:25.753Z,2.70
2023-05-14T11:52:57.696Z,2.95
2023-05-14T11:55:25.366Z,2.95
2023-05-14T11:57:52.863Z,2.80
2023-05-14T12:00:22.231Z,2.90
2023-05-14T12:02:50.491Z,2.60
2023-05-14T12:05:18.919Z,3.17
2023-05-14T12:07:48.045Z,3.30
2023-05-14T12:10:17.671Z,2.80
2023-05-14T12:12:49.008Z,3.03
2023-05-14T12:15:17.364Z,2.85
2023-05-14T12:19:06.684Z,3.10
2023-05-14T12:22:50.171Z,2.85
2023-05-14T12:26:32.726Z,2.90
2023-05-14T12:30:21.900Z,3.10
2023-05-14T12:34:05.168Z,2.95
2023-05-14T12:37:48.054Z,2.97
2023-05-14T12:41:31.591Z,2.95
2023-05-14T12:44:00.530Z,2.72
2023-05-14T12:47:43.651Z,3.05
2023-05-14T12:51:26.363Z,2.80
2023-05-14T12:53:54.252Z,3.00
2023-05-14T12:57:36.593Z,2.90
2023-05-14T13:00:08.214Z,2.70
2023-05-14T13:02:43.185Z,2.70
2023-05-14T13:05:12.698Z,2.70
2023-05-14T13:08:56.775Z,2.75
2023-05-14T13:12:39.503Z,2.80
2023-05-14T13:15:07.955Z,2.70
2023-05-14T13:17:36.365Z,2.90
2023-05-14T13:20:04.819Z,3.25
2023-05-14T13:22:32.025Z,2.90
2023-05-14T13:24:59.230Z,2.40
2023-05-14T13:27:26.536Z,2.58
2023-05-14T13:29:54.015Z,2.67
2023-05-14T13:32:21.647Z,2.72
2023-05-14T13:34:49.138Z,2.22
2023-05-14T13:37:16.716Z,2.60
2023-05-14T13:39:45.060Z,2.58
2023-05-14T13:42:12.834Z,2.40
2023-05-14T13:44:40.385Z,2.38
2023-05-14T13:47:07.847Z,2.53
2023-05-14T13:49:35.521Z,2.28
2023-05-14T13:52:03.760Z,2.28
2023-05-14T13:54:31.346Z,2.50
2023-05-14T13:56:58.539Z,2.15
2023-05-14T13:59:25.827Z,2.47
2023-05-14T14:01:53.263Z,2.78
2023-05-14T14:04:21.079Z,2.38
2023-05-14T14:06:49.248Z,2.95
2023-05-14T14:09:17.106Z,2.80
2023-05-14T14:11:45.106Z,2.28
2023-05-14T14:14:13.246Z,2.28
2023-05-14T14:16:40.829Z,2.58
2023-05-14T14:19:10.821Z,2.08
2023-05-14T14:21:45.412Z,2.47
2023-05-14T14:24:14.787Z,2.50
2023-05-14T14:26:42.452Z,2.25
2023-05-14T14:29:10.655Z,2.45
2023-05-14T14:31:38.421Z,2.38
2023-05-14T14:34:06.188Z,2.78
2023-05-14T14:36:33.608Z,2.67
2023-05-14T14:39:05.896Z,2.80
2023-05-14T14:41:33.461Z,2.35
2023-05-14T14:44:02.745Z,2.88
2023-05-14T14:46:30.049Z,2.42
2023-05-14T14:48:58.002Z,2.53
2023-05-14T14:51:25.635Z,2.72
2023-05-14T14:53:52.953Z,2.60
2023-05-14T14:56:20.186Z,2.63
2023-05-14T14:58:47.658Z,2.85
2023-05-14T15:01:15.099Z,3.10
2023-05-14T15:03:43.339Z,2.85
2023-05-14T15:06:12.461Z,2.70
2023-05-14T15:08:40.406Z,2.38
2023-05-14T15:11:09.183Z,2.40
2023-05-14T15:13:36.843Z,2.42
2023-05-14T15:16:04.144Z,2.40
2023-05-14T15:18:31.370Z,2.70
2023-05-14T15:20:58.949Z,2.67
2023-05-14T15:23:26.551Z,2.50
2023-05-14T15:25:54.058Z,2.80
2023-05-14T15:28:21.981Z,2.90
2023-05-14T15:30:49.891Z,3.20
2023-05-14T15:33:19.266Z,2.60
2023-05-14T15:35:46.921Z,2.50
2023-05-14T15:38:14.152Z,2.50
2023-05-14T15:40:42.093Z,2.63
2023-05-14T15:43:09.713Z,2.28
2023-05-14T15:45:37.612Z,2.50
2023-05-14T15:48:05.119Z,2.65
2023-05-14T15:50:32.767Z,2.65
2023-05-14T15:53:00.964Z,2.80
2023-05-14T15:55:28.312Z,2.58
2023-05-14T15:57:56.058Z,2.80
2023-05-14T16:00:24.879Z,2.60
2023-05-14T16:02:53.045Z,2.65
2023-05-14T16:05:20.896Z,3.15
2023-05-14T16:07:48.824Z,2.72
2023-05-14T16:10:21.510Z,3.00
2023-05-14T16:12:49.128Z,3.40
2023-05-14T16:15:16.977Z,3.15
2023-05-14T16:17:44.730Z,2.80
2023-05-14T16:20:12.691Z,2.88
2023-05-14T16:22:40.555Z,2.70
2023-05-14T16:25:08.745Z,2.92
2023-05-14T16:27:36.639Z,2.60
2023-05-14T16:30:05.375Z,2.30
2023-05-14T16:32:33.729Z,2.80
2023-05-14T16:35:02.494Z,2.58
2023-05-14T16:37:31.587Z,2.50
2023-05-14T16:39:59.335Z,2.67
2023-05-14T16:42:26.691Z,2.67
2023-05-14T16:44:54.130Z,2.67
2023-05-14T16:47:21.460Z,2.60
2023-05-14T16:49:48.990Z,2.65
2023-05-14T16:52:16.668Z,2.60
2023-05-14T16:54:43.904Z,2.30
2023-05-14T16:57:11.258Z,2.58
2023-05-14T16:59:38.518Z,2.60
2023-05-14T17:02:06.263Z,2.40
2023-05-14T17:04:38.678Z,2.50
2023-05-14T17:07:07.390Z,2.70
2023-05-14T17:09:35.587Z,2.65
2023-05-14T17:12:03.434Z,2.63
2023-05-14T17:14:31.588Z,2.55
2023-05-14T17:16:58.911Z,2.63
2023-05-14T17:19:26.095Z,2.58
2023-05-14T17:21:53.681Z,2.30
2023-05-14T17:24:21.558Z,2.22
2023-05-14T17:26:49.388Z,2.13
2023-05-14T17:29:17.766Z,2.00
2023-05-14T17:31:45.314Z,2.53
2023-05-14T17:34:12.770Z,2.05
2023-05-14T17:36:40.021Z,2.50
2023-05-14T17:39:07.642Z,2.33
2023-05-14T17:41:35.256Z,2.10
2023-05-14T17:44:02.511Z,2.35
2023-05-14T17:46:30.542Z,2.22
2023-05-14T17:48:58.521Z,2.38
2023-05-14T17:51:26.070Z,2.40
2023-05-14T17:53:53.536Z,3.75
2023-05-14T17:56:20.900Z,2.72
2023-05-14T17:58:49.910Z,2.63
2023-05-14T18:01:18.037Z,2.55
2023-05-14T18:03:46.126Z,2.30
2023-05-14T18:06:13.740Z,2.17
2023-05-14T18:08:42.697Z,2.40
2023-05-14T18:11:10.844Z,2.28
2023-05-14T18:13:38.399Z,2.63
2023-05-14T18:16:05.991Z,2.40
2023-05-14T18:18:33.441Z,2.65
2023-05-14T18:21:00.954Z,2.53
2023-05-14T18:23:28.885Z,2.70
2023-05-14T18:25:57.249Z,2.90
2023-05-14T18:28:25.342Z,3.70
2023-05-14T18:30:53.391Z,3.75
2023-05-14T18:33:21.238Z,3.55
2023-05-14T18:35:48.618Z,4.03
2023-05-14T18:38:17.865Z,3.78
2023-05-14T18:40:46.687Z,3.75
2023-05-14T18:43:15.066Z,4.43
2023-05-14T18:45:43.279Z,4.13
2023-05-14T18:48:10.777Z,4.22
2023-05-14T18:50:39.487Z,4.28
2023-05-14T18:53:07.614Z,4.93
2023-05-14T18:55:38.146Z,4.10
2023-05-14T18:58:05.646Z,3.90
2023-05-14T19:00:33.060Z,3.40
2023-05-14T19:03:00.826Z,3.85
2023-05-14T19:05:28.576Z,3.53
2023-05-14T19:08:02.095Z,3.67
2023-05-14T19:10:30.077Z,3.50
2023-05-14T19:12:57.694Z,3.80
2023-05-14T19:15:25.532Z,3.00
2023-05-14T19:17:54.166Z,3.63
2023-05-14T19:20:21.576Z,3.40
2023-05-14T19:22:49.343Z,3.35
2023-05-14T19:25:20.246Z,3.80
2023-05-14T19:27:51.082Z,3.90
2023-05-14T19:30:21.258Z,5.50
2023-05-14T19:32:48.587Z,7.38
2023-05-14T19:35:16.485Z,5.63
2023-05-14T19:37:44.096Z,4.70
2023-05-14T19:40:12.224Z,4.15
2023-05-14T19:42:39.777Z,4.43
2023-05-14T19:45:08.187Z,5.65
2023-05-14T19:47:35.461Z,5.50
2023-05-14T19:50:02.978Z,5.30
2023-05-14T19:52:31.934Z,4.18
2023-05-14T19:54:59.262Z,4.50
2023-05-14T19:57:26.760Z,4.65
2023-05-14T19:59:54.133Z,4.63
2023-05-14T20:02:22.265Z,5.50
2023-05-14T20:04:49.908Z,4.85
2023-05-14T20:07:17.867Z,4.43
2023-05-14T20:09:46.341Z,5.00
2023-05-14T20:12:14.538Z,5.13
2023-05-14T20:14:41.968Z,4.90
2023-05-14T20:17:09.829Z,4.72
2023-05-14T20:19:37.188Z,5.00
2023-05-14T20:22:04.695Z,4.72
2023-05-14T20:24:32.437Z,5.38
2023-05-14T20:27:00.253Z,4.47
2023-05-14T20:29:28.033Z,4.88
2023-05-14T20:31:55.780Z,5.28
2023-05-14T20:34:26.325Z,4.90
2023-05-14T20:36:53.565Z,5.35
2023-05-14T20:39:21.476Z,4.88
2023-05-14T20:41:48.999Z,4.70
2023-05-14T20:44:16.789Z,4.75
2023-05-14T20:46:45.211Z,5.35
2023-05-14T20:49:12.824Z,5.13
2023-05-14T20:51:40.580Z,5.53
2023-05-14T20:54:07.971Z,6.70
2023-05-14T20:56:38.162Z,6.35
2023-05-14T20:59:05.751Z,5.75
2023-05-14T21:01:33.150Z,4.80
2023-05-14T21:04:01.527Z,5.07
2023-05-14T21:06:29.658Z,5.45
2023-05-14T21:08:58.053Z,5.18
2023-05-14T21:11:26.197Z,5.13
2023-05-14T21:13:53.803Z,4.97
2023-05-14T21:16:21.168Z,5.05
2023-05-14T21:18:48.497Z,4.80
2023-05-14T21:21:15.785Z,4.78
2023-05-14T21:23:43.303Z,4.85
2023-05-14T21:26:11.484Z,4.75
2023-05-14T21:28:39.014Z,4.63
2023-05-14T21:31:06.351Z,4.80
2023-05-14T21:33:33.691Z,4.63
2023-05-14T21:36:01.776Z,4.72
2023-05-14T21:38:29.095Z,4.60
2023-05-14T21:40:56.379Z,4.68
2023-05-14T21:43:24.061Z,4.93
2023-05-14T21:45:51.386Z,4.93
2023-05-14T21:48:18.712Z,4.82
2023-05-14T21:50:46.036Z,4.88
2023-05-14T21:53:13.534Z,5.65
2023-05-14T21:55:41.676Z,4.78
2023-05-14T21:58:09.008Z,5.38
2023-05-14T22:00:36.179Z,5.70
2023-05-14T22:03:03.770Z,5.35
2023-05-14T22:05:31.582Z,5.55
2023-05-14T22:08:01.992Z,5.50
2023-05-14T22:10:31.390Z,5.95
2023-05-14T22:12:59.048Z,5.47
2023-05-14T22:15:26.664Z,6.00
2023-05-14T22:17:54.210Z,5.75
2023-05-14T22:20:22.428Z,5.60
2023-05-14T22:22:50.122Z,5.70
2023-05-14T22:25:21.392Z,5.82
2023-05-14T22:27:49.015Z,5.75
2023-05-14T22:30:16.722Z,6.10
2023-05-14T22:32:44.253Z,5.97
2023-05-14T22:35:11.677Z,6.43
2023-05-14T22:37:38.825Z,6.00
2023-05-14T22:40:09.217Z,6.07
2023-05-14T22:42:37.517Z,6.13
2023-05-14T22:45:05.397Z,5.97
2023-05-14T22:47:32.634Z,5.82
2023-05-14T22:50:00.188Z,6.22
2023-05-14T22:53:43.386Z,6.38
2023-05-14T22:57:26.093Z,6.22
2023-05-14T23:01:09.047Z,6.38
2023-05-14T23:04:51.853Z,6.57
2023-05-14T23:08:34.839Z,6.65
2023-05-14T23:11:02.994Z,6.47
2023-05-14T23:14:46.189Z,6.70
2023-05-14T23:17:14.090Z,7.00
2023-05-14T23:20:57.591Z,7.53
2023-05-14T23:24:40.710Z,7.60
2023-05-14T23:27:08.296Z,6.97
2023-05-14T23:30:51.006Z,6.70
2023-05-14T23:34:34.900Z,7.00
2023-05-14T23:37:02.749Z,7.05
2023-05-14T23:40:45.864Z,7.53
2023-05-14T23:44:28.655Z,7.43
2023-05-14T23:46:56.236Z,7.35
2023-05-14T23:50:03.709Z,7.35
2023-05-14T23:52:31.653Z,7.55
2023-05-14T23:54:59.148Z,7.28
2023-05-14T23:57:27.192Z,7.45
2023-05-14T23:59:54.500Z,7.57
